sensor_id;sensor_type;location;lat;lon;timestamp;P1;durP1;ratioP1;P2;durP2;ratioP2
42832;SDS011;64089;51.478;5.692;2023-03-22T00:02:13;7.25;;;3.85;;
42832;SDS011;64089;51.478;5.692;2023-03-22T00:04:40;13.60;;;3.72;;
42832;SDS011;64089;51.478;5.692;2023-03-22T00:07:07;14.15;;;4.15;;
42832;SDS011;64089;51.478;5.692;2023-03-22T00:09:32;12.90;;;3.95;;
42832;SDS011;64089;51.478;5.692;2023-03-22T00:11:58;8.77;;;3.38;;
42832;SDS011;64089;51.478;5.692;2023-03-22T00:14:23;9.80;;;3.85;;
42832;SDS011;64089;51.478;5.692;2023-03-22T00:16:49;15.10;;;4.20;;
42832;SDS011;64089;51.478;5.692;2023-03-22T00:19:15;11.23;;;4.43;;
42832;SDS011;64089;51.478;5.692;2023-03-22T00:21:41;8.20;;;4.15;;
42832;SDS011;64089;51.478;5.692;2023-03-22T00:24:07;13.68;;;4.40;;
42832;SDS011;64089;51.478;5.692;2023-03-22T00:26:32;6.38;;;3.80;;
42832;SDS011;64089;51.478;5.692;2023-03-22T00:28:58;15.18;;;4.70;;
42832;SDS011;64089;51.478;5.692;2023-03-22T00:31:24;9.98;;;4.35;;
42832;SDS011;64089;51.478;5.692;2023-03-22T00:33:50;13.02;;;4.30;;
42832;SDS011;64089;51.478;5.692;2023-03-22T00:36:15;14.85;;;5.07;;
42832;SDS011;64089;51.478;5.692;2023-03-22T00:38:41;15.68;;;5.45;;
42832;SDS011;64089;51.478;5.692;2023-03-22T00:41:11;10.02;;;4.65;;
42832;SDS011;64089;51.478;5.692;2023-03-22T00:43:37;14.15;;;5.38;;
42832;SDS011;64089;51.478;5.692;2023-03-22T00:46:03;11.30;;;5.07;;
42832;SDS011;64089;51.478;5.692;2023-03-22T00:48:29;10.43;;;4.55;;
42832;SDS011;64089;51.478;5.692;2023-03-22T00:50:55;13.35;;;4.57;;
42832;SDS011;64089;51.478;5.692;2023-03-22T00:53:21;11.38;;;4.85;;
42832;SDS011;64089;51.478;5.692;2023-03-22T00:55:47;13.35;;;4.63;;
42832;SDS011;64089;51.478;5.692;2023-03-22T00:58:12;13.43;;;5.20;;
42832;SDS011;64089;51.478;5.692;2023-03-22T01:00:38;10.60;;;4.70;;
42832;SDS011;64089;51.478;5.692;2023-03-22T01:03:04;16.80;;;5.32;;
42832;SDS011;64089;51.478;5.692;2023-03-22T01:05:31;9.13;;;4.85;;
42832;SDS011;64089;51.478;5.692;2023-03-22T01:08:03;12.43;;;4.68;;
42832;SDS011;64089;51.478;5.692;2023-03-22T01:10:36;11.55;;;5.22;;
42832;SDS011;64089;51.478;5.692;2023-03-22T01:13:03;13.55;;;5.68;;
42832;SDS011;64089;51.478;5.692;2023-03-22T01:15:29;11.30;;;5.85;;
42832;SDS011;64089;51.478;5.692;2023-03-22T01:17:55;12.30;;;5.53;;
42832;SDS011;64089;51.478;5.692;2023-03-22T01:20:21;10.02;;;5.38;;
42832;SDS011;64089;51.478;5.692;2023-03-22T01:22:47;14.38;;;6.43;;
42832;SDS011;64089;51.478;5.692;2023-03-22T01:25:13;18.27;;;6.65;;
42832;SDS011;64089;51.478;5.692;2023-03-22T01:27:38;17.75;;;6.40;;
42832;SDS011;64089;51.478;5.692;2023-03-22T01:30:04;15.32;;;6.88;;
42832;SDS011;64089;51.478;5.692;2023-03-22T01:32:31;13.27;;;7.22;;
42832;SDS011;64089;51.478;5.692;2023-03-22T01:34:57;17.70;;;7.47;;
42832;SDS011;64089;51.478;5.692;2023-03-22T01:37:22;17.35;;;7.30;;
42832;SDS011;64089;51.478;5.692;2023-03-22T01:39:51;22.08;;;8.05;;
42832;SDS011;64089;51.478;5.692;2023-03-22T01:42:19;18.73;;;7.72;;
42832;SDS011;64089;51.478;5.692;2023-03-22T01:47:51;12.98;;;7.35;;
42832;SDS011;64089;51.478;5.692;2023-03-22T01:50:23;16.15;;;7.32;;
42832;SDS011;64089;51.478;5.692;2023-03-22T01:52:50;15.23;;;6.22;;
42832;SDS011;64089;51.478;5.692;2023-03-22T01:55:17;26.90;;;7.55;;
42832;SDS011;64089;51.478;5.692;2023-03-22T01:57:46;17.90;;;6.60;;
42832;SDS011;64089;51.478;5.692;2023-03-22T02:00:13;11.60;;;6.07;;
42832;SDS011;64089;51.478;5.692;2023-03-22T02:02:43;11.13;;;6.28;;
42832;SDS011;64089;51.478;5.692;2023-03-22T02:05:12;12.32;;;6.13;;
42832;SDS011;64089;51.478;5.692;2023-03-22T02:07:38;12.98;;;6.22;;
42832;SDS011;64089;51.478;5.692;2023-03-22T02:10:10;11.45;;;6.35;;
42832;SDS011;64089;51.478;5.692;2023-03-22T02:12:42;15.32;;;5.63;;
42832;SDS011;64089;51.478;5.692;2023-03-22T02:15:21;11.55;;;5.72;;
42832;SDS011;64089;51.478;5.692;2023-03-22T02:29:23;13.23;;;5.78;;
42832;SDS011;64089;51.478;5.692;2023-03-22T02:40:43;15.73;;;4.72;;
42832;SDS011;64089;51.478;5.692;2023-03-22T02:44:00;6.70;;;4.40;;
42832;SDS011;64089;51.478;5.692;2023-03-22T02:46:34;18.02;;;4.95;;
42832;SDS011;64089;51.478;5.692;2023-03-22T02:51:45;9.50;;;4.68;;
42832;SDS011;64089;51.478;5.692;2023-03-22T02:54:21;10.77;;;4.68;;
42832;SDS011;64089;51.478;5.692;2023-03-22T02:57:15;8.65;;;4.75;;
42832;SDS011;64089;51.478;5.692;2023-03-22T02:59:57;9.52;;;4.40;;
42832;SDS011;64089;51.478;5.692;2023-03-22T03:02:25;8.38;;;4.32;;
42832;SDS011;64089;51.478;5.692;2023-03-22T03:04:52;11.60;;;3.78;;
42832;SDS011;64089;51.478;5.692;2023-03-22T03:07:23;7.10;;;4.18;;
42832;SDS011;64089;51.478;5.692;2023-03-22T03:09:52;14.45;;;4.93;;
42832;SDS011;64089;51.478;5.692;2023-03-22T03:12:19;9.68;;;3.95;;
42832;SDS011;64089;51.478;5.692;2023-03-22T03:14:49;9.77;;;3.95;;
42832;SDS011;64089;51.478;5.692;2023-03-22T03:19:52;8.35;;;4.22;;
42832;SDS011;64089;51.478;5.692;2023-03-22T03:22:57;6.75;;;3.65;;
42832;SDS011;64089;51.478;5.692;2023-03-22T03:34:55;11.40;;;3.88;;
42832;SDS011;64089;51.478;5.692;2023-03-22T03:36:53;5.45;;;3.53;;
42832;SDS011;64089;51.478;5.692;2023-03-22T03:39:23;5.00;;;2.95;;
42832;SDS011;64089;51.478;5.692;2023-03-22T03:41:53;11.63;;;3.63;;
42832;SDS011;64089;51.478;5.692;2023-03-22T03:44:21;17.00;;;3.72;;
42832;SDS011;64089;51.478;5.692;2023-03-22T03:46:47;7.00;;;3.50;;
42832;SDS011;64089;51.478;5.692;2023-03-22T03:49:15;5.72;;;3.30;;
42832;SDS011;64089;51.478;5.692;2023-03-22T03:51:49;4.20;;;2.70;;
42832;SDS011;64089;51.478;5.692;2023-03-22T03:54:18;7.22;;;3.53;;
42832;SDS011;64089;51.478;5.692;2023-03-22T03:56:48;7.43;;;3.97;;
42832;SDS011;64089;51.478;5.692;2023-03-22T03:59:15;12.90;;;3.90;;
42832;SDS011;64089;51.478;5.692;2023-03-22T04:01:42;12.55;;;3.42;;
42832;SDS011;64089;51.478;5.692;2023-03-22T04:04:19;10.93;;;3.58;;
42832;SDS011;64089;51.478;5.692;2023-03-22T04:06:56;8.50;;;3.05;;
42832;SDS011;64089;51.478;5.692;2023-03-22T04:09:24;6.20;;;2.75;;
42832;SDS011;64089;51.478;5.692;2023-03-22T04:11:51;5.50;;;2.95;;
42832;SDS011;64089;51.478;5.692;2023-03-22T04:14:17;6.13;;;3.22;;
42832;SDS011;64089;51.478;5.692;2023-03-22T04:16:43;9.05;;;3.10;;
42832;SDS011;64089;51.478;5.692;2023-03-22T04:19:09;13.73;;;2.83;;
42832;SDS011;64089;51.478;5.692;2023-03-22T04:21:35;9.63;;;3.25;;
42832;SDS011;64089;51.478;5.692;2023-03-22T04:24:01;6.25;;;3.30;;
42832;SDS011;64089;51.478;5.692;2023-03-22T04:26:27;7.50;;;2.72;;
42832;SDS011;64089;51.478;5.692;2023-03-22T04:28:52;5.35;;;2.00;;
42832;SDS011;64089;51.478;5.692;2023-03-22T04:31:18;10.48;;;3.08;;
42832;SDS011;64089;51.478;5.692;2023-03-22T04:33:44;9.05;;;2.85;;
42832;SDS011;64089;51.478;5.692;2023-03-22T04:36:11;5.72;;;2.55;;
42832;SDS011;64089;51.478;5.692;2023-03-22T04:38:41;6.32;;;2.47;;
42832;SDS011;64089;51.478;5.692;2023-03-22T04:41:08;6.15;;;2.97;;
42832;SDS011;64089;51.478;5.692;2023-03-22T04:43:34;7.93;;;3.15;;
42832;SDS011;64089;51.478;5.692;2023-03-22T04:46:03;6.15;;;2.90;;
42832;SDS011;64089;51.478;5.692;2023-03-22T04:48:34;6.95;;;2.60;;
42832;SDS011;64089;51.478;5.692;2023-03-22T04:51:00;12.88;;;3.13;;
42832;SDS011;64089;51.478;5.692;2023-03-22T04:53:28;6.10;;;2.38;;
42832;SDS011;64089;51.478;5.692;2023-03-22T04:55:55;5.57;;;2.42;;
42832;SDS011;64089;51.478;5.692;2023-03-22T04:58:22;10.95;;;2.85;;
42832;SDS011;64089;51.478;5.692;2023-03-22T05:00:49;7.10;;;2.50;;
42832;SDS011;64089;51.478;5.692;2023-03-22T05:03:16;8.43;;;2.35;;
42832;SDS011;64089;51.478;5.692;2023-03-22T05:05:53;7.97;;;2.72;;
42832;SDS011;64089;51.478;5.692;2023-03-22T05:08:22;8.85;;;3.83;;
42832;SDS011;64089;51.478;5.692;2023-03-22T05:10:49;11.32;;;2.90;;
42832;SDS011;64089;51.478;5.692;2023-03-22T05:13:16;7.15;;;2.42;;
42832;SDS011;64089;51.478;5.692;2023-03-22T05:15:46;9.70;;;2.47;;
42832;SDS011;64089;51.478;5.692;2023-03-22T05:18:13;5.70;;;1.73;;
42832;SDS011;64089;51.478;5.692;2023-03-22T05:20:40;12.75;;;3.20;;
42832;SDS011;64089;51.478;5.692;2023-03-22T05:23:07;7.63;;;2.35;;
42832;SDS011;64089;51.478;5.692;2023-03-22T05:25:34;8.48;;;1.70;;
42832;SDS011;64089;51.478;5.692;2023-03-22T05:28:00;5.82;;;1.90;;
42832;SDS011;64089;51.478;5.692;2023-03-22T05:30:27;10.20;;;1.95;;
42832;SDS011;64089;51.478;5.692;2023-03-22T05:32:56;8.57;;;2.60;;
42832;SDS011;64089;51.478;5.692;2023-03-22T05:35:24;5.60;;;2.25;;
42832;SDS011;64089;51.478;5.692;2023-03-22T05:37:50;8.80;;;2.03;;
42832;SDS011;64089;51.478;5.692;2023-03-22T05:40:16;5.95;;;2.08;;
42832;SDS011;64089;51.478;5.692;2023-03-22T05:42:43;6.30;;;2.15;;
42832;SDS011;64089;51.478;5.692;2023-03-22T05:45:09;10.27;;;2.38;;
42832;SDS011;64089;51.478;5.692;2023-03-22T05:47:35;6.50;;;2.58;;
42832;SDS011;64089;51.478;5.692;2023-03-22T05:50:03;3.65;;;2.03;;
42832;SDS011;64089;51.478;5.692;2023-03-22T05:52:30;3.80;;;2.08;;
42832;SDS011;64089;51.478;5.692;2023-03-22T05:54:56;9.00;;;2.65;;
42832;SDS011;64089;51.478;5.692;2023-03-22T05:57:21;10.30;;;2.47;;
42832;SDS011;64089;51.478;5.692;2023-03-22T05:59:47;9.13;;;2.03;;
42832;SDS011;64089;51.478;5.692;2023-03-22T06:02:12;5.05;;;2.50;;
42832;SDS011;64089;51.478;5.692;2023-03-22T06:04:38;7.72;;;2.17;;
42832;SDS011;64089;51.478;5.692;2023-03-22T06:07:05;5.35;;;2.33;;
42832;SDS011;64089;51.478;5.692;2023-03-22T06:09:31;5.07;;;2.05;;
42832;SDS011;64089;51.478;5.692;2023-03-22T06:11:57;12.13;;;2.00;;
42832;SDS011;64089;51.478;5.692;2023-03-22T06:14:23;6.03;;;2.08;;
42832;SDS011;64089;51.478;5.692;2023-03-22T06:16:48;15.65;;;2.70;;
42832;SDS011;64089;51.478;5.692;2023-03-22T06:19:14;8.13;;;2.33;;
42832;SDS011;64089;51.478;5.692;2023-03-22T06:21:40;7.68;;;1.80;;
42832;SDS011;64089;51.478;5.692;2023-03-22T06:24:06;3.85;;;1.58;;
42832;SDS011;64089;51.478;5.692;2023-03-22T06:26:32;4.82;;;1.95;;
42832;SDS011;64089;51.478;5.692;2023-03-22T06:28:57;3.88;;;1.83;;
42832;SDS011;64089;51.478;5.692;2023-03-22T06:31:23;4.28;;;2.03;;
42832;SDS011;64089;51.478;5.692;2023-03-22T06:33:49;7.40;;;2.38;;
42832;SDS011;64089;51.478;5.692;2023-03-22T06:36:15;8.77;;;2.10;;
42832;SDS011;64089;51.478;5.692;2023-03-22T06:38:41;7.20;;;2.30;;
42832;SDS011;64089;51.478;5.692;2023-03-22T06:41:06;7.10;;;2.03;;
42832;SDS011;64089;51.478;5.692;2023-03-22T06:43:32;5.22;;;2.00;;
42832;SDS011;64089;51.478;5.692;2023-03-22T06:45:57;18.38;;;2.95;;
42832;SDS011;64089;51.478;5.692;2023-03-22T06:48:23;2.75;;;1.80;;
42832;SDS011;64089;51.478;5.692;2023-03-22T06:50:49;9.82;;;2.38;;
42832;SDS011;64089;51.478;5.692;2023-03-22T06:53:14;10.13;;;2.70;;
42832;SDS011;64089;51.478;5.692;2023-03-22T06:55:40;4.13;;;2.28;;
42832;SDS011;64089;51.478;5.692;2023-03-22T06:58:06;4.97;;;2.33;;
42832;SDS011;64089;51.478;5.692;2023-03-22T07:00:31;6.50;;;2.55;;
42832;SDS011;64089;51.478;5.692;2023-03-22T07:02:58;6.57;;;2.53;;
42832;SDS011;64089;51.478;5.692;2023-03-22T07:05:24;10.65;;;2.10;;
42832;SDS011;64089;51.478;5.692;2023-03-22T07:07:49;9.30;;;2.80;;
42832;SDS011;64089;51.478;5.692;2023-03-22T07:10:15;9.32;;;2.22;;
42832;SDS011;64089;51.478;5.692;2023-03-22T07:12:41;9.05;;;2.38;;
42832;SDS011;64089;51.478;5.692;2023-03-22T07:15:07;9.27;;;2.22;;
42832;SDS011;64089;51.478;5.692;2023-03-22T07:17:33;3.72;;;1.83;;
42832;SDS011;64089;51.478;5.692;2023-03-22T07:19:58;8.15;;;2.42;;
42832;SDS011;64089;51.478;5.692;2023-03-22T07:22:24;10.00;;;1.98;;
42832;SDS011;64089;51.478;5.692;2023-03-22T07:24:51;6.45;;;2.50;;
42832;SDS011;64089;51.478;5.692;2023-03-22T07:27:16;7.32;;;1.58;;
42832;SDS011;64089;51.478;5.692;2023-03-22T07:29:42;8.80;;;2.35;;
42832;SDS011;64089;51.478;5.692;2023-03-22T07:32:08;6.63;;;2.20;;
42832;SDS011;64089;51.478;5.692;2023-03-22T07:34:35;8.68;;;2.03;;
42832;SDS011;64089;51.478;5.692;2023-03-22T07:37:00;7.78;;;1.60;;
42832;SDS011;64089;51.478;5.692;2023-03-22T07:39:27;8.38;;;2.63;;
42832;SDS011;64089;51.478;5.692;2023-03-22T07:41:53;8.52;;;2.33;;
42832;SDS011;64089;51.478;5.692;2023-03-22T07:44:23;7.28;;;2.25;;
42832;SDS011;64089;51.478;5.692;2023-03-22T07:46:49;6.90;;;2.20;;
42832;SDS011;64089;51.478;5.692;2023-03-22T07:49:16;9.27;;;2.20;;
42832;SDS011;64089;51.478;5.692;2023-03-22T07:51:42;11.48;;;2.95;;
42832;SDS011;64089;51.478;5.692;2023-03-22T07:54:08;3.60;;;1.60;;
42832;SDS011;64089;51.478;5.692;2023-03-22T07:56:34;7.38;;;1.58;;
42832;SDS011;64089;51.478;5.692;2023-03-22T07:58:59;9.32;;;1.75;;
42832;SDS011;64089;51.478;5.692;2023-03-22T08:01:25;8.15;;;2.30;;
42832;SDS011;64089;51.478;5.692;2023-03-22T08:03:51;13.20;;;2.25;;
42832;SDS011;64089;51.478;5.692;2023-03-22T08:06:18;9.07;;;1.92;;
42832;SDS011;64089;51.478;5.692;2023-03-22T08:08:45;10.77;;;2.40;;
42832;SDS011;64089;51.478;5.692;2023-03-22T08:11:11;3.58;;;1.75;;
42832;SDS011;64089;51.478;5.692;2023-03-22T08:13:37;14.57;;;1.77;;
42832;SDS011;64089;51.478;5.692;2023-03-22T08:16:04;11.73;;;1.90;;
42832;SDS011;64089;51.478;5.692;2023-03-22T08:18:30;12.60;;;2.75;;
42832;SDS011;64089;51.478;5.692;2023-03-22T08:20:57;11.15;;;1.90;;
42832;SDS011;64089;51.478;5.692;2023-03-22T08:23:24;5.43;;;2.35;;
42832;SDS011;64089;51.478;5.692;2023-03-22T08:25:51;7.00;;;2.42;;
42832;SDS011;64089;51.478;5.692;2023-03-22T08:28:17;9.00;;;2.03;;
42832;SDS011;64089;51.478;5.692;2023-03-22T08:30:44;6.05;;;1.60;;
42832;SDS011;64089;51.478;5.692;2023-03-22T08:33:12;18.73;;;7.63;;
42832;SDS011;64089;51.478;5.692;2023-03-22T08:35:38;26.92;;;10.70;;
42832;SDS011;64089;51.478;5.692;2023-03-22T08:38:04;13.63;;;6.00;;
42832;SDS011;64089;51.478;5.692;2023-03-22T08:40:30;35.53;;;11.45;;
42832;SDS011;64089;51.478;5.692;2023-03-22T08:42:56;14.20;;;2.28;;
42832;SDS011;64089;51.478;5.692;2023-03-22T08:45:22;4.13;;;1.70;;
42832;SDS011;64089;51.478;5.692;2023-03-22T08:47:49;11.57;;;2.10;;
42832;SDS011;64089;51.478;5.692;2023-03-22T08:50:14;8.25;;;1.27;;
42832;SDS011;64089;51.478;5.692;2023-03-22T08:52:41;6.03;;;1.38;;
42832;SDS011;64089;51.478;5.692;2023-03-22T08:55:07;4.47;;;1.80;;
42832;SDS011;64089;51.478;5.692;2023-03-22T08:57:33;8.20;;;1.73;;
42832;SDS011;64089;51.478;5.692;2023-03-22T08:59:59;8.68;;;1.25;;
42832;SDS011;64089;51.478;5.692;2023-03-22T09:02:25;11.80;;;2.40;;
42832;SDS011;64089;51.478;5.692;2023-03-22T09:04:51;5.43;;;1.20;;
42832;SDS011;64089;51.478;5.692;2023-03-22T09:07:17;19.20;;;6.20;;
42832;SDS011;64089;51.478;5.692;2023-03-22T09:09:46;19.70;;;7.80;;
42832;SDS011;64089;51.478;5.692;2023-03-22T09:12:12;12.35;;;3.97;;
42832;SDS011;64089;51.478;5.692;2023-03-22T09:14:38;16.25;;;6.45;;
42832;SDS011;64089;51.478;5.692;2023-03-22T09:17:03;8.32;;;2.80;;
42832;SDS011;64089;51.478;5.692;2023-03-22T09:19:29;9.15;;;1.48;;
42832;SDS011;64089;51.478;5.692;2023-03-22T09:21:56;6.10;;;1.77;;
42832;SDS011;64089;51.478;5.692;2023-03-22T09:24:21;6.32;;;1.77;;
42832;SDS011;64089;51.478;5.692;2023-03-22T09:26:47;4.95;;;2.05;;
42832;SDS011;64089;51.478;5.692;2023-03-22T09:29:13;3.85;;;1.25;;
42832;SDS011;64089;51.478;5.692;2023-03-22T09:31:38;12.13;;;2.00;;
42832;SDS011;64089;51.478;5.692;2023-03-22T09:34:04;10.43;;;1.65;;
42832;SDS011;64089;51.478;5.692;2023-03-22T09:36:30;5.72;;;1.33;;
42832;SDS011;64089;51.478;5.692;2023-03-22T09:38:56;3.60;;;1.20;;
42832;SDS011;64089;51.478;5.692;2023-03-22T09:44:22;9.93;;;1.60;;
42832;SDS011;64089;51.478;5.692;2023-03-22T09:46:53;3.17;;;1.27;;
42832;SDS011;64089;51.478;5.692;2023-03-22T09:49:22;11.45;;;1.58;;
42832;SDS011;64089;51.478;5.692;2023-03-22T09:51:51;7.25;;;1.27;;
42832;SDS011;64089;51.478;5.692;2023-03-22T09:54:19;3.65;;;1.23;;
42832;SDS011;64089;51.478;5.692;2023-03-22T09:56:59;5.45;;;1.60;;
42832;SDS011;64089;51.478;5.692;2023-03-22T10:02:21;6.90;;;2.00;;
42832;SDS011;64089;51.478;5.692;2023-03-22T10:13:02;6.68;;;1.15;;
42832;SDS011;64089;51.478;5.692;2023-03-22T10:15:18;29.92;;;7.38;;
42832;SDS011;64089;51.478;5.692;2023-03-22T10:17:53;18.08;;;7.63;;
42832;SDS011;64089;51.478;5.692;2023-03-22T10:23:15;10.07;;;2.25;;
42832;SDS011;64089;51.478;5.692;2023-03-22T10:25:48;11.55;;;1.70;;
42832;SDS011;64089;51.478;5.692;2023-03-22T10:28:20;11.32;;;0.98;;
42832;SDS011;64089;51.478;5.692;2023-03-22T10:30:49;5.68;;;1.48;;
42832;SDS011;64089;51.478;5.692;2023-03-22T10:34:01;6.68;;;1.33;;
42832;SDS011;64089;51.478;5.692;2023-03-22T10:36:18;10.98;;;1.38;;
42832;SDS011;64089;51.478;5.692;2023-03-22T10:38:55;6.05;;;1.30;;
42832;SDS011;64089;51.478;5.692;2023-03-22T10:41:24;5.90;;;1.10;;
42832;SDS011;64089;51.478;5.692;2023-03-22T10:43:52;4.65;;;1.30;;
42832;SDS011;64089;51.478;5.692;2023-03-22T10:46:22;1.98;;;1.08;;
42832;SDS011;64089;51.478;5.692;2023-03-22T10:48:50;6.03;;;1.30;;
42832;SDS011;64089;51.478;5.692;2023-03-22T10:51:26;8.27;;;1.65;;
42832;SDS011;64089;51.478;5.692;2023-03-22T10:54:01;6.05;;;1.55;;
42832;SDS011;64089;51.478;5.692;2023-03-22T10:56:27;3.17;;;1.23;;
42832;SDS011;64089;51.478;5.692;2023-03-22T10:58:53;1.83;;;1.02;;
42832;SDS011;64089;51.478;5.692;2023-03-22T11:01:25;10.98;;;1.50;;
42832;SDS011;64089;51.478;5.692;2023-03-22T11:04:13;7.93;;;1.55;;
42832;SDS011;64089;51.478;5.692;2023-03-22T11:06:50;3.08;;;1.50;;
42832;SDS011;64089;51.478;5.692;2023-03-22T11:09:18;2.15;;;1.35;;
42832;SDS011;64089;51.478;5.692;2023-03-22T11:11:53;6.63;;;1.40;;
42832;SDS011;64089;51.478;5.692;2023-03-22T11:14:34;10.15;;;1.35;;
42832;SDS011;64089;51.478;5.692;2023-03-22T11:22:01;11.27;;;1.77;;
42832;SDS011;64089;51.478;5.692;2023-03-22T11:24:40;11.52;;;1.60;;
42832;SDS011;64089;51.478;5.692;2023-03-22T11:27:27;9.77;;;2.13;;
42832;SDS011;64089;51.478;5.692;2023-03-22T11:30:38;5.45;;;1.85;;
42832;SDS011;64089;51.478;5.692;2023-03-22T11:32:46;11.48;;;2.33;;
42832;SDS011;64089;51.478;5.692;2023-03-22T11:35:14;8.38;;;1.23;;
42832;SDS011;64089;51.478;5.692;2023-03-22T11:40:16;15.25;;;1.58;;
42832;SDS011;64089;51.478;5.692;2023-03-22T11:42:53;3.35;;;1.45;;
42832;SDS011;64089;51.478;5.692;2023-03-22T11:45:30;7.70;;;1.88;;
42832;SDS011;64089;51.478;5.692;2023-03-22T11:48:00;2.10;;;1.20;;
42832;SDS011;64089;51.478;5.692;2023-03-22T11:50:30;15.35;;;1.35;;
42832;SDS011;64089;51.478;5.692;2023-03-22T11:53:02;7.32;;;1.38;;
42832;SDS011;64089;51.478;5.692;2023-03-22T11:55:31;2.63;;;1.23;;
42832;SDS011;64089;51.478;5.692;2023-03-22T11:58:01;7.63;;;1.40;;
42832;SDS011;64089;51.478;5.692;2023-03-22T12:00:28;3.42;;;1.17;;
42832;SDS011;64089;51.478;5.692;2023-03-22T12:03:04;4.43;;;1.15;;
42832;SDS011;64089;51.478;5.692;2023-03-22T12:05:38;7.03;;;1.25;;
42832;SDS011;64089;51.478;5.692;2023-03-22T12:08:15;3.35;;;1.00;;
42832;SDS011;64089;51.478;5.692;2023-03-22T12:10:55;3.90;;;0.93;;
42832;SDS011;64089;51.478;5.692;2023-03-22T12:15:57;3.40;;;1.23;;
42832;SDS011;64089;51.478;5.692;2023-03-22T12:18:40;5.18;;;1.10;;
42832;SDS011;64089;51.478;5.692;2023-03-22T12:21:10;11.48;;;1.80;;
42832;SDS011;64089;51.478;5.692;2023-03-22T12:23:36;6.25;;;1.23;;
42832;SDS011;64089;51.478;5.692;2023-03-22T12:26:03;2.25;;;1.17;;
42832;SDS011;64089;51.478;5.692;2023-03-22T12:29:16;2.63;;;1.17;;
42832;SDS011;64089;51.478;5.692;2023-03-22T12:31:30;2.67;;;0.88;;
42832;SDS011;64089;51.478;5.692;2023-03-22T12:34:05;7.18;;;1.40;;
42832;SDS011;64089;51.478;5.692;2023-03-22T12:36:39;8.73;;;1.42;;
42832;SDS011;64089;51.478;5.692;2023-03-22T12:39:22;7.32;;;1.30;;
42832;SDS011;64089;51.478;5.692;2023-03-22T12:41:55;6.00;;;1.33;;
42832;SDS011;64089;51.478;5.692;2023-03-22T12:46:56;7.75;;;1.08;;
42832;SDS011;64089;51.478;5.692;2023-03-22T12:52:16;2.67;;;0.70;;
42832;SDS011;64089;51.478;5.692;2023-03-22T12:54:51;4.80;;;1.88;;
42832;SDS011;64089;51.478;5.692;2023-03-22T12:57:17;2.88;;;1.15;;
42832;SDS011;64089;51.478;5.692;2023-03-22T12:59:48;7.28;;;2.13;;
42832;SDS011;64089;51.478;5.692;2023-03-22T13:02:18;5.57;;;1.55;;
42832;SDS011;64089;51.478;5.692;2023-03-22T13:05:00;3.58;;;0.88;;
42832;SDS011;64089;51.478;5.692;2023-03-22T13:16:01;0.90;;;0.77;;
42832;SDS011;64089;51.478;5.692;2023-03-22T13:21:24;4.57;;;1.38;;
42832;SDS011;64089;51.478;5.692;2023-03-22T13:26:32;8.80;;;1.27;;
42832;SDS011;64089;51.478;5.692;2023-03-22T13:29:08;9.20;;;1.10;;
42832;SDS011;64089;51.478;5.692;2023-03-22T13:31:59;12.55;;;1.60;;
42832;SDS011;64089;51.478;5.692;2023-03-22T13:34:29;3.17;;;1.38;;
42832;SDS011;64089;51.478;5.692;2023-03-22T13:37:06;2.83;;;1.42;;
42832;SDS011;64089;51.478;5.692;2023-03-22T13:42:07;2.80;;;1.50;;
42832;SDS011;64089;51.478;5.692;2023-03-22T13:44:45;8.32;;;1.88;;
42832;SDS011;64089;51.478;5.692;2023-03-22T13:47:37;4.25;;;1.23;;
42832;SDS011;64089;51.478;5.692;2023-03-22T13:50:16;6.40;;;1.60;;
42832;SDS011;64089;51.478;5.692;2023-03-22T13:52:58;4.15;;;1.30;;
42832;SDS011;64089;51.478;5.692;2023-03-22T13:58:01;4.38;;;1.17;;
42832;SDS011;64089;51.478;5.692;2023-03-22T14:03:41;5.80;;;1.33;;
42832;SDS011;64089;51.478;5.692;2023-03-22T14:05:52;3.95;;;1.30;;
42832;SDS011;64089;51.478;5.692;2023-03-22T14:08:28;3.08;;;1.90;;
42832;SDS011;64089;51.478;5.692;2023-03-22T14:11:01;4.53;;;0.90;;
42832;SDS011;64089;51.478;5.692;2023-03-22T14:14:06;8.80;;;1.25;;
42832;SDS011;64089;51.478;5.692;2023-03-22T14:16:48;5.13;;;1.40;;
42832;SDS011;64089;51.478;5.692;2023-03-22T14:19:19;7.32;;;1.30;;
42832;SDS011;64089;51.478;5.692;2023-03-22T14:21:56;6.45;;;1.30;;
42832;SDS011;64089;51.478;5.692;2023-03-22T14:24:26;5.57;;;1.42;;
42832;SDS011;64089;51.478;5.692;2023-03-22T14:26:57;7.60;;;1.10;;
42832;SDS011;64089;51.478;5.692;2023-03-22T14:29:24;3.05;;;1.17;;
42832;SDS011;64089;51.478;5.692;2023-03-22T14:32:01;9.05;;;1.75;;
42832;SDS011;64089;51.478;5.692;2023-03-22T14:34:30;5.10;;;1.80;;
42832;SDS011;64089;51.478;5.692;2023-03-22T14:36:59;3.38;;;1.58;;
42832;SDS011;64089;51.478;5.692;2023-03-22T14:39:36;4.38;;;1.63;;
42832;SDS011;64089;51.478;5.692;2023-03-22T14:42:07;7.25;;;1.85;;
42832;SDS011;64089;51.478;5.692;2023-03-22T14:44:44;3.88;;;1.70;;
42832;SDS011;64089;51.478;5.692;2023-03-22T14:49:40;6.22;;;1.52;;
42832;SDS011;64089;51.478;5.692;2023-03-22T14:52:17;6.55;;;1.33;;
42832;SDS011;64089;51.478;5.692;2023-03-22T14:54:50;6.15;;;1.88;;
42832;SDS011;64089;51.478;5.692;2023-03-22T14:57:18;5.70;;;1.48;;
42832;SDS011;64089;51.478;5.692;2023-03-22T14:59:46;1.35;;;1.00;;
42832;SDS011;64089;51.478;5.692;2023-03-22T15:04:55;3.13;;;1.45;;
42832;SDS011;64089;51.478;5.692;2023-03-22T15:07:21;2.63;;;1.25;;
42832;SDS011;64089;51.478;5.692;2023-03-22T15:09:47;4.55;;;1.20;;
42832;SDS011;64089;51.478;5.692;2023-03-22T15:12:14;4.68;;;1.90;;
42832;SDS011;64089;51.478;5.692;2023-03-22T15:14:40;9.95;;;1.88;;
42832;SDS011;64089;51.478;5.692;2023-03-22T15:17:07;4.05;;;1.45;;
42832;SDS011;64089;51.478;5.692;2023-03-22T15:19:37;8.98;;;2.53;;
42832;SDS011;64089;51.478;5.692;2023-03-22T15:22:12;4.40;;;1.65;;
42832;SDS011;64089;51.478;5.692;2023-03-22T15:27:14;3.72;;;1.50;;
42832;SDS011;64089;51.478;5.692;2023-03-22T15:29:42;6.78;;;1.30;;
42832;SDS011;64089;51.478;5.692;2023-03-22T15:32:12;4.78;;;1.45;;
42832;SDS011;64089;51.478;5.692;2023-03-22T15:34:41;2.33;;;1.30;;
42832;SDS011;64089;51.478;5.692;2023-03-22T15:37:27;7.47;;;1.27;;
42832;SDS011;64089;51.478;5.692;2023-03-22T15:39:58;7.28;;;1.40;;
42832;SDS011;64089;51.478;5.692;2023-03-22T15:42:30;5.47;;;1.45;;
42832;SDS011;64089;51.478;5.692;2023-03-22T15:45:20;9.52;;;1.80;;
42832;SDS011;64089;51.478;5.692;2023-03-22T15:47:48;5.38;;;1.50;;
42832;SDS011;64089;51.478;5.692;2023-03-22T15:50:26;8.02;;;1.30;;
42832;SDS011;64089;51.478;5.692;2023-03-22T15:52:54;6.80;;;2.20;;
42832;SDS011;64089;51.478;5.692;2023-03-22T15:55:37;5.22;;;1.92;;
42832;SDS011;64089;51.478;5.692;2023-03-22T15:58:04;3.92;;;1.38;;
42832;SDS011;64089;51.478;5.692;2023-03-22T16:00:41;2.97;;;1.50;;
42832;SDS011;64089;51.478;5.692;2023-03-22T16:05:39;4.28;;;1.60;;
42832;SDS011;64089;51.478;5.692;2023-03-22T16:08:06;8.18;;;1.83;;
42832;SDS011;64089;51.478;5.692;2023-03-22T16:10:34;3.88;;;1.58;;
42832;SDS011;64089;51.478;5.692;2023-03-22T16:13:07;8.95;;;2.13;;
42832;SDS011;64089;51.478;5.692;2023-03-22T16:15:41;5.43;;;1.85;;
42832;SDS011;64089;51.478;5.692;2023-03-22T16:18:08;4.18;;;1.75;;
42832;SDS011;64089;51.478;5.692;2023-03-22T16:20:40;10.32;;;2.22;;
42832;SDS011;64089;51.478;5.692;2023-03-22T16:23:05;6.38;;;2.15;;
42832;SDS011;64089;51.478;5.692;2023-03-22T16:25:37;7.75;;;2.80;;
42832;SDS011;64089;51.478;5.692;2023-03-22T16:28:02;4.72;;;2.20;;
42832;SDS011;64089;51.478;5.692;2023-03-22T16:30:28;7.25;;;2.30;;
42832;SDS011;64089;51.478;5.692;2023-03-22T16:32:54;4.45;;;2.00;;
42832;SDS011;64089;51.478;5.692;2023-03-22T16:35:21;3.75;;;2.15;;
42832;SDS011;64089;51.478;5.692;2023-03-22T16:37:47;6.65;;;2.38;;
42832;SDS011;64089;51.478;5.692;2023-03-22T16:40:17;11.75;;;2.75;;